createdAt,value
2017-03-30T00:00:03.673Z,72.73
2017-03-30T00:00:29.754Z,72.83
2017-03-30T00:00:55.858Z,73.5
2017-03-30T00:01:21.939Z,72.92
2017-03-30T00:01:48.045Z,72.73
2017-03-30T00:02:14.125Z,72.63
2017-03-30T00:02:40.205Z,72.63
2017-03-30T00:03:06.290Z,72.83
2017-03-30T00:03:32.372Z,72.54
2017-03-30T00:03:58.452Z,72.83
2017-03-30T00:04:24.560Z,73.11
2017-03-30T00:04:50.683Z,73.4
2017-03-30T00:05:16.765Z,73.4
2017-03-30T00:05:42.849Z,73.3
2017-03-30T00:06:08.929Z,73.59
2017-03-30T00:06:35.010Z,73.11
2017-03-30T00:07:01.090Z,73.21
2017-03-30T00:07:27.197Z,73.3
2017-03-30T00:07:53.277Z,73.11
2017-03-30T00:08:19.357Z,73.4
2017-03-30T00:08:45.462Z,73.11
2017-03-30T00:09:11.544Z,73.59
2017-03-30T00:09:37.626Z,73.3
2017-03-30T00:10:03.709Z,73.21
2017-03-30T00:10:29.812Z,73.4
2017-03-30T00:10:55.894Z,73.3
2017-03-30T00:11:21.973Z,73.11
2017-03-30T00:11:48.058Z,72.83
2017-03-30T00:12:14.138Z,73.4
2017-03-30T00:12:40.218Z,72.63
2017-03-30T00:13:06.300Z,72.92
2017-03-30T00:13:32.381Z,72.83
2017-03-30T00:13:58.484Z,72.73
2017-03-30T00:14:24.591Z,72.73
2017-03-30T00:14:50.721Z,72.73
2017-03-30T00:15:16.803Z,72.63
2017-03-30T00:15:42.884Z,73.3
2017-03-30T00:16:08.991Z,73.21
2017-03-30T00:16:35.072Z,73.21
2017-03-30T00:17:01.151Z,73.69
2017-03-30T00:17:27.252Z,73.4
2017-03-30T00:17:53.333Z,73.4
2017-03-30T00:18:19.416Z,73.4
2017-03-30T00:18:45.497Z,73.11
2017-03-30T00:19:11.608Z,73.08
2017-03-30T00:19:37.712Z,72.92
2017-03-30T00:20:03.798Z,73.3
2017-03-30T00:20:29.879Z,73.3
2017-03-30T00:20:55.959Z,73.4
2017-03-30T00:21:22.042Z,73.79
2017-03-30T00:21:48.151Z,73.3
2017-03-30T00:22:14.276Z,73.4
2017-03-30T00:22:40.381Z,73.11
2017-03-30T00:23:06.485Z,73.36
2017-03-30T00:23:32.569Z,73.36
2017-03-30T00:23:58.651Z,73.36
2017-03-30T00:24:24.732Z,74.26
2017-03-30T00:24:50.838Z,73.79
2017-03-30T00:25:16.942Z,73.4
2017-03-30T00:25:43.044Z,73.5
2017-03-30T00:26:09.150Z,73.4
2017-03-30T00:26:35.283Z,73.5
2017-03-30T00:27:01.382Z,73.4
2017-03-30T00:27:27.464Z,73.17
2017-03-30T00:27:53.547Z,73.75
2017-03-30T00:28:19.695Z,74.13
2017-03-30T00:28:45.776Z,74.04
2017-03-30T00:29:11.883Z,74.07
2017-03-30T00:29:37.965Z,73.69
2017-03-30T00:30:04.045Z,74.16
2017-03-30T00:30:30.151Z,73.97
2017-03-30T00:30:56.230Z,74.13
2017-03-30T00:31:22.310Z,74.41
2017-03-30T00:31:48.422Z,74.22
2017-03-30T00:32:14.523Z,73.79
2017-03-30T00:32:40.602Z,73.3
2017-03-30T00:33:06.710Z,73.4
2017-03-30T00:33:32.791Z,73.59
2017-03-30T00:33:58.871Z,73.3
2017-03-30T00:34:24.953Z,73.5
2017-03-30T00:34:51.036Z,74.22
2017-03-30T00:35:17.138Z,73.84
2017-03-30T00:35:43.239Z,74.13
2017-03-30T00:36:09.321Z,74.7
2017-03-30T00:36:35.402Z,74.04
2017-03-30T00:37:01.507Z,74.41
2017-03-30T00:37:27.588Z,74.04
2017-03-30T00:37:53.708Z,74.16
2017-03-30T00:38:19.776Z,74.32
2017-03-30T00:38:45.878Z,73.94
2017-03-30T00:39:11.960Z,74.04
2017-03-30T00:39:38.042Z,74.07
2017-03-30T00:40:04.148Z,73.75
2017-03-30T00:40:30.276Z,73.65
2017-03-30T00:40:56.371Z,74.41
2017-03-30T00:41:22.462Z,74.41
2017-03-30T00:41:48.565Z,74.61
2017-03-30T00:42:14.670Z,74.13
2017-03-30T00:42:40.776Z,74.9
2017-03-30T00:43:06.859Z,74.7
2017-03-30T00:43:32.941Z,74.7
2017-03-30T00:43:59.070Z,74.7
2017-03-30T00:44:25.152Z,74.7
2017-03-30T00:44:51.261Z,74.13
2017-03-30T00:45:17.364Z,74.07
2017-03-30T00:45:43.446Z,73.97
2017-03-30T00:46:09.552Z,73.88
2017-03-30T00:46:35.630Z,73.84
2017-03-30T00:47:01.736Z,74.36
2017-03-30T00:47:27.818Z,74.16
2017-03-30T00:47:53.921Z,73.84
2017-03-30T00:48:20.074Z,74.32
2017-03-30T00:48:46.155Z,74.13
2017-03-30T00:49:12.239Z,74.13
2017-03-30T00:49:38.321Z,74.16
2017-03-30T00:50:04.401Z,73.94
2017-03-30T00:50:30.482Z,73.94
2017-03-30T00:50:56.585Z,74.13
2017-03-30T00:51:22.690Z,73.94
2017-03-30T00:51:48.771Z,74.07
2017-03-30T00:52:14.874Z,73.84
2017-03-30T00:52:40.956Z,74.51
2017-03-30T00:53:07.039Z,73.75
2017-03-30T00:53:33.120Z,74.13
2017-03-30T00:53:59.204Z,73.75
2017-03-30T00:54:25.286Z,73.97
2017-03-30T00:54:51.369Z,73.97
2017-03-30T00:55:17.449Z,74.41
2017-03-30T00:55:43.533Z,74.16
2017-03-30T00:56:09.615Z,74.04
2017-03-30T00:56:35.698Z,73.84
2017-03-30T00:57:01.800Z,74.32
2017-03-30T00:57:27.927Z,74.26
2017-03-30T00:57:54.008Z,74.8
2017-03-30T00:58:20.111Z,73.84
2017-03-30T00:58:46.192Z,74.04
2017-03-30T00:59:12.278Z,73.94
2017-03-30T00:59:38.362Z,73.97
2017-03-30T01:00:04.462Z,74.07
2017-03-30T01:00:30.547Z,73.94
2017-03-30T01:00:56.652Z,73.94
2017-03-30T01:01:22.754Z,74.04
2017-03-30T01:01:48.858Z,74.22
2017-03-30T01:02:14.941Z,74.41
2017-03-30T01:02:41.045Z,74.26
2017-03-30T01:03:07.128Z,74.51
2017-03-30T01:03:33.234Z,73.94
2017-03-30T01:03:59.315Z,73.88
2017-03-30T01:04:25.398Z,74.04
2017-03-30T01:04:51.481Z,73.84
2017-03-30T01:05:17.583Z,73.88
2017-03-30T01:05:43.665Z,73.79
2017-03-30T01:06:09.748Z,74.16
2017-03-30T01:06:35.829Z,73.94
2017-03-30T01:07:01.939Z,73.75
2017-03-30T01:07:28.018Z,73.94
2017-03-30T01:07:54.101Z,74.04
2017-03-30T01:08:20.203Z,73.88
2017-03-30T01:08:46.284Z,74.32
2017-03-30T01:09:12.387Z,74.13
2017-03-30T01:09:38.467Z,73.75
2017-03-30T01:10:04.571Z,73.75
2017-03-30T01:10:30.675Z,74.22
2017-03-30T01:10:56.754Z,74.26
2017-03-30T01:11:22.861Z,74.45
2017-03-30T01:11:48.944Z,73.88
2017-03-30T01:12:15.070Z,74.36
2017-03-30T01:12:41.175Z,74.13
2017-03-30T01:13:07.256Z,73.84
2017-03-30T01:13:33.338Z,74.32
2017-03-30T01:13:59.423Z,73.5
2017-03-30T01:14:25.527Z,73.79
2017-03-30T01:14:51.631Z,74.22
2017-03-30T01:15:17.715Z,74.26
2017-03-30T01:15:43.820Z,74.22
2017-03-30T01:16:09.904Z,74.04
2017-03-30T01:16:36.005Z,74.13
2017-03-30T01:17:02.110Z,74.04
2017-03-30T01:17:28.217Z,74.13
2017-03-30T01:17:54.298Z,74.13
2017-03-30T01:18:20.400Z,74.26
2017-03-30T01:18:46.633Z,74.13
2017-03-30T01:19:12.715Z,74.22
2017-03-30T01:19:38.799Z,74.26
2017-03-30T01:20:04.881Z,74.16
2017-03-30T01:20:30.962Z,73.97
2017-03-30T01:20:57.043Z,74.07
2017-03-30T01:21:23.121Z,73.84
2017-03-30T01:21:49.207Z,73.55
2017-03-30T01:22:15.334Z,73.4
2017-03-30T01:22:41.415Z,73.5
2017-03-30T01:23:07.497Z,73.5
2017-03-30T01:23:33.583Z,73.4
2017-03-30T01:23:59.684Z,73.4
2017-03-30T01:24:25.763Z,73.21
2017-03-30T01:24:51.845Z,73.02
2017-03-30T01:25:17.928Z,73.59
2017-03-30T01:25:44.032Z,73.4
2017-03-30T01:26:10.114Z,73.4
2017-03-30T01:26:36.222Z,73.4
2017-03-30T01:27:02.305Z,73.5
2017-03-30T01:27:28.385Z,73.59
2017-03-30T01:27:54.467Z,73.3
2017-03-30T01:28:20.549Z,73.21
2017-03-30T01:28:46.636Z,73.21
2017-03-30T01:29:12.715Z,73.4
2017-03-30T01:29:38.799Z,73.02
2017-03-30T01:30:04.882Z,72.83
2017-03-30T01:30:30.962Z,72.73
2017-03-30T01:30:57.042Z,72.54
2017-03-30T01:31:23.123Z,72.73
2017-03-30T01:31:49.207Z,73.3
2017-03-30T01:32:15.288Z,72.63
2017-03-30T01:32:41.371Z,73.3
2017-03-30T01:33:07.451Z,73.46
2017-03-30T01:33:33.531Z,73.55
2017-03-30T01:33:59.614Z,73.17
2017-03-30T01:34:25.697Z,73.3
2017-03-30T01:34:51.779Z,73.46
2017-03-30T01:35:17.861Z,73.21
2017-03-30T01:35:43.967Z,73.21
2017-03-30T01:36:10.051Z,73.3
2017-03-30T01:36:36.130Z,73.4
2017-03-30T01:37:02.213Z,73.21
2017-03-30T01:37:28.321Z,73.21
2017-03-30T01:37:54.426Z,73.17
2017-03-30T01:38:20.507Z,73.4
2017-03-30T01:38:46.589Z,73.17
2017-03-30T01:39:12.672Z,73.27
2017-03-30T01:39:38.757Z,73.4
2017-03-30T01:40:04.863Z,73.21
2017-03-30T01:40:30.946Z,73.36
2017-03-30T01:40:57.051Z,72.92
2017-03-30T01:41:23.176Z,73.17
2017-03-30T01:41:49.256Z,72.73
2017-03-30T01:42:15.339Z,73.3
2017-03-30T01:42:41.448Z,73.08
2017-03-30T01:43:07.528Z,73.21
2017-03-30T01:43:33.682Z,73.21
2017-03-30T01:43:59.764Z,72.63
2017-03-30T01:44:25.845Z,72.83
2017-03-30T01:44:51.928Z,72.73
2017-03-30T01:45:18.031Z,72.63
2017-03-30T01:45:44.110Z,72.73
2017-03-30T01:46:10.192Z,72.34
2017-03-30T01:46:36.293Z,72.54
2017-03-30T01:47:02.373Z,72.54
2017-03-30T01:47:28.457Z,72.25
2017-03-30T01:47:54.536Z,72.63
2017-03-30T01:48:20.619Z,72.34
2017-03-30T01:48:46.722Z,72.34
2017-03-30T01:49:12.804Z,71.87
2017-03-30T01:49:38.883Z,72.44
2017-03-30T01:50:04.987Z,71.87
2017-03-30T01:50:31.093Z,71.87
2017-03-30T01:50:57.198Z,71.77
2017-03-30T01:51:23.279Z,71.68
2017-03-30T01:51:49.359Z,71.77
2017-03-30T01:52:15.443Z,72.25
2017-03-30T01:52:41.524Z,72.44
2017-03-30T01:53:07.607Z,72.54
2017-03-30T01:53:33.692Z,72.16
2017-03-30T01:53:59.773Z,72.06
2017-03-30T01:54:25.852Z,72.63
2017-03-30T01:54:51.935Z,72.34
2017-03-30T01:55:18.043Z,72.54
2017-03-30T01:55:44.148Z,72.73
2017-03-30T01:56:10.229Z,72.83
2017-03-30T01:56:36.313Z,72.83
2017-03-30T01:57:02.442Z,72.63
2017-03-30T01:57:28.524Z,72.34
2017-03-30T01:57:54.605Z,72.16
2017-03-30T01:58:20.710Z,72.34
2017-03-30T01:58:46.815Z,72.16
2017-03-30T01:59:12.896Z,72.25
2017-03-30T01:59:38.979Z,71.77
2017-03-30T02:00:05.085Z,71.48
2017-03-30T02:00:31.169Z,71.77
2017-03-30T02:00:57.273Z,71.48
2017-03-30T02:01:23.377Z,71.68
2017-03-30T02:01:49.460Z,71.58
2017-03-30T02:02:15.565Z,71.48
2017-03-30T02:02:41.672Z,71.48
2017-03-30T02:03:07.753Z,71.68
2017-03-30T02:03:33.834Z,71.48
2017-03-30T02:03:59.942Z,71.58
2017-03-30T02:04:26.044Z,71.58
2017-03-30T02:04:52.123Z,71.58
2017-03-30T02:05:18.209Z,71.48
2017-03-30T02:05:44.311Z,71.68
2017-03-30T02:06:10.413Z,71.68
2017-03-30T02:06:36.494Z,71.3
2017-03-30T02:07:02.580Z,71.48
2017-03-30T02:07:28.683Z,71.11
2017-03-30T02:07:54.764Z,71.2
2017-03-30T02:08:20.845Z,70.81
2017-03-30T02:08:46.927Z,71.68
2017-03-30T02:09:13.009Z,71.39
2017-03-30T02:09:39.089Z,71.2
2017-03-30T02:10:05.181Z,71.11
2017-03-30T02:10:31.279Z,71.48
2017-03-30T02:10:57.358Z,70.72
2017-03-30T02:11:23.442Z,71.11
2017-03-30T02:11:49.522Z,70.91
2017-03-30T02:12:15.603Z,71.3
2017-03-30T02:12:41.683Z,71.01
2017-03-30T02:13:07.764Z,70.91
2017-03-30T02:13:33.845Z,71.01
2017-03-30T02:13:59.930Z,70.34
2017-03-30T02:14:26.032Z,69.95
2017-03-30T02:14:52.159Z,70.05
2017-03-30T02:15:18.262Z,70.05
2017-03-30T02:15:44.343Z,70.05
2017-03-30T02:16:10.446Z,70.05
2017-03-30T02:16:36.528Z,69.76
2017-03-30T02:17:02.615Z,69.76
2017-03-30T02:17:28.696Z,69.86
2017-03-30T02:17:54.775Z,69.95
2017-03-30T02:18:20.857Z,70.05
2017-03-30T02:18:46.943Z,70.24
2017-03-30T02:19:13.023Z,70.24
2017-03-30T02:19:39.103Z,69.76
2017-03-30T02:20:05.185Z,69.76
2017-03-30T02:20:31.266Z,69.76
2017-03-30T02:20:57.372Z,70.05
2017-03-30T02:21:23.451Z,69.76
2017-03-30T02:21:49.532Z,69.95
2017-03-30T02:22:15.638Z,69.86
2017-03-30T02:22:41.767Z,70.24
2017-03-30T02:23:07.848Z,70.15
2017-03-30T02:23:33.954Z,69.95
2017-03-30T02:24:00.036Z,70.15
2017-03-30T02:24:26.139Z,69.76
2017-03-30T02:24:52.243Z,69.95
2017-03-30T02:25:18.326Z,69.76
2017-03-30T02:25:44.405Z,69.76
2017-03-30T02:26:10.488Z,69.86
2017-03-30T02:26:36.569Z,69.95
2017-03-30T02:27:02.649Z,69.95
2017-03-30T02:27:28.753Z,69.76
2017-03-30T02:27:54.833Z,69.86
2017-03-30T02:28:20.935Z,69.67
2017-03-30T02:28:47.019Z,69.95
2017-03-30T02:29:13.198Z,69.57
2017-03-30T02:29:39.281Z,69.95
2017-03-30T02:30:05.385Z,69.86
2017-03-30T02:30:31.463Z,69.48
2017-03-30T02:30:57.548Z,69.67
2017-03-30T02:31:23.631Z,69.29
2017-03-30T02:31:49.711Z,69.57
2017-03-30T02:32:15.794Z,69.38
2017-03-30T02:32:41.900Z,69.76
2017-03-30T02:33:07.983Z,69.57
2017-03-30T02:33:34.089Z,69.57
2017-03-30T02:34:00.168Z,69.57
2017-03-30T02:34:26.272Z,69.48
2017-03-30T02:34:52.352Z,69.67
2017-03-30T02:35:18.456Z,69.19
2017-03-30T02:35:44.559Z,69.48
2017-03-30T02:36:10.639Z,69.29
2017-03-30T02:36:36.720Z,69.95
2017-03-30T02:37:02.827Z,69.95
2017-03-30T02:37:28.928Z,70.24
2017-03-30T02:37:55.010Z,69.57
2017-03-30T02:38:21.094Z,69.38
2017-03-30T02:38:47.178Z,69.95
2017-03-30T02:39:13.259Z,69.67
2017-03-30T02:39:39.340Z,70.05
2017-03-30T02:40:05.446Z,69.95
2017-03-30T02:40:31.523Z,69.57
2017-03-30T02:40:57.606Z,70.05
2017-03-30T02:41:23.688Z,70.05
2017-03-30T02:41:49.770Z,69.95
2017-03-30T02:42:15.873Z,69.19
2017-03-30T02:42:41.956Z,69.29
2017-03-30T02:43:08.058Z,69.09
2017-03-30T02:43:34.141Z,69.67
2017-03-30T02:44:00.220Z,69.57
2017-03-30T02:44:26.452Z,69.76
2017-03-30T02:44:52.535Z,69.76
2017-03-30T02:45:18.618Z,69.76
2017-03-30T02:45:44.699Z,69.95
2017-03-30T02:46:10.784Z,70.15
2017-03-30T02:46:36.864Z,69.95
2017-03-30T02:47:02.971Z,70.05
2017-03-30T02:47:29.053Z,69.86
2017-03-30T02:47:55.138Z,69.67
2017-03-30T02:48:21.217Z,69.48
2017-03-30T02:48:47.300Z,69.76
2017-03-30T02:49:13.383Z,69.76
2017-03-30T02:49:39.464Z,69.76
2017-03-30T02:50:05.565Z,69.57
2017-03-30T02:50:31.650Z,69.67
2017-03-30T02:50:57.755Z,69.76
2017-03-30T02:51:23.836Z,69.57
2017-03-30T02:51:49.918Z,69.76
2017-03-30T02:52:15.999Z,69.86
2017-03-30T02:52:42.084Z,69.76
2017-03-30T02:53:08.206Z,70.34
2017-03-30T02:53:34.289Z,70.15
2017-03-30T02:54:00.371Z,70.05
2017-03-30T02:54:26.452Z,70.34
2017-03-30T02:54:52.535Z,69.76
2017-03-30T02:55:18.640Z,70.53
2017-03-30T02:55:44.721Z,69.95
2017-03-30T02:56:10.801Z,70.15
2017-03-30T02:56:36.884Z,69.95
2017-03-30T02:57:02.987Z,69.67
2017-03-30T02:57:29.068Z,69.95
2017-03-30T02:57:55.194Z,70.43
2017-03-30T02:58:21.299Z,69.76
2017-03-30T02:58:47.381Z,69.86
2017-03-30T02:59:13.465Z,70.15
2017-03-30T02:59:39.552Z,69.95
2017-03-30T03:00:05.632Z,69.57
2017-03-30T03:00:31.758Z,69.86
2017-03-30T03:00:57.840Z,69.29
2017-03-30T03:01:23.947Z,69.29
2017-03-30T03:01:50.049Z,69.42
2017-03-30T03:02:16.127Z,69.48
2017-03-30T03:02:42.212Z,69.29
2017-03-30T03:03:08.317Z,69.29
2017-03-30T03:03:34.400Z,69.48
2017-03-30T03:04:00.482Z,69.09
2017-03-30T03:04:26.564Z,69.29
2017-03-30T03:04:52.667Z,69.32
2017-03-30T03:05:18.747Z,69.09
2017-03-30T03:05:44.830Z,69.13
2017-03-30T03:06:10.936Z,69.38
2017-03-30T03:06:37.041Z,69.42
2017-03-30T03:07:03.146Z,69.13
2017-03-30T03:07:29.229Z,69.29
2017-03-30T03:07:55.333Z,69.38
2017-03-30T03:08:21.415Z,69.09
2017-03-30T03:08:47.495Z,68.9
2017-03-30T03:09:13.580Z,69.09
2017-03-30T03:09:39.656Z,69.51
2017-03-30T03:10:05.759Z,69.19
2017-03-30T03:10:31.843Z,69.23
2017-03-30T03:10:57.921Z,69
2017-03-30T03:11:24.000Z,69.57
2017-03-30T03:11:50.082Z,69.57
2017-03-30T03:12:16.165Z,69.48
2017-03-30T03:12:42.247Z,69.48
2017-03-30T03:13:08.330Z,69.57
2017-03-30T03:13:34.410Z,69.76
2017-03-30T03:14:00.493Z,69.57
2017-03-30T03:14:26.576Z,69.76
2017-03-30T03:14:52.681Z,69.67
2017-03-30T03:15:18.786Z,69.76
2017-03-30T03:15:44.867Z,69.86
2017-03-30T03:16:10.950Z,69.67
2017-03-30T03:16:37.029Z,70.05
2017-03-30T03:17:03.109Z,69.95
2017-03-30T03:17:29.217Z,69.76
2017-03-30T03:17:55.298Z,69.86
2017-03-30T03:18:21.403Z,70.05
2017-03-30T03:18:47.508Z,69.86
2017-03-30T03:19:13.612Z,69.76
2017-03-30T03:19:39.694Z,69.76
2017-03-30T03:20:05.778Z,69.86
2017-03-30T03:20:31.880Z,70.05
2017-03-30T03:20:57.987Z,69.86
2017-03-30T03:21:24.070Z,70.05
2017-03-30T03:21:50.154Z,69.95
2017-03-30T03:22:16.280Z,70.05
2017-03-30T03:22:42.362Z,69.86
2017-03-30T03:23:08.447Z,69.86
2017-03-30T03:23:34.528Z,70.05
2017-03-30T03:24:00.609Z,69.95
2017-03-30T03:24:26.691Z,69.86
2017-03-30T03:24:52.798Z,69.86
2017-03-30T03:25:18.905Z,70.05
2017-03-30T03:25:44.986Z,69.86
2017-03-30T03:26:11.069Z,69.76
2017-03-30T03:26:37.151Z,69.95
2017-03-30T03:27:03.277Z,70.15
2017-03-30T03:27:29.379Z,70.05
2017-03-30T03:27:55.485Z,70.34
2017-03-30T03:28:21.571Z,69.95
2017-03-30T03:28:47.673Z,69.76
2017-03-30T03:29:13.758Z,69.95
2017-03-30T03:29:39.838Z,70.05
2017-03-30T03:30:05.920Z,70.43
2017-03-30T03:30:31.999Z,69.95
2017-03-30T03:30:58.108Z,69.57
2017-03-30T03:31:24.189Z,70.24
2017-03-30T03:31:50.269Z,70.15
2017-03-30T03:32:16.372Z,70.15
2017-03-30T03:32:42.457Z,69.95
2017-03-30T03:33:08.541Z,69.76
2017-03-30T03:33:34.690Z,70.05
2017-03-30T03:34:00.773Z,70.05
2017-03-30T03:34:26.877Z,69.95
2017-03-30T03:34:52.981Z,70.15
2017-03-30T03:35:19.063Z,70.15
2017-03-30T03:35:45.189Z,70.34
2017-03-30T03:36:11.274Z,69.86
2017-03-30T03:36:37.357Z,69.95
2017-03-30T03:37:03.441Z,70.24
2017-03-30T03:37:29.522Z,69.95
2017-03-30T03:37:55.603Z,69.95
2017-03-30T03:38:21.688Z,69.95
2017-03-30T03:38:47.771Z,70.81
2017-03-30T03:39:13.851Z,71.01
2017-03-30T03:39:39.934Z,70.15
2017-03-30T03:40:06.014Z,69.95
2017-03-30T03:40:32.098Z,71.01
2017-03-30T03:40:58.179Z,70.62
2017-03-30T03:41:24.263Z,70.72
2017-03-30T03:41:50.345Z,71.01
2017-03-30T03:42:16.427Z,71.2
2017-03-30T03:42:42.533Z,71.11
2017-03-30T03:43:08.614Z,71.01
2017-03-30T03:43:34.718Z,70.91
2017-03-30T03:44:00.798Z,70.91
2017-03-30T03:44:26.907Z,70.53
2017-03-30T03:44:52.988Z,70.72
2017-03-30T03:45:19.088Z,70.81
2017-03-30T03:45:45.172Z,70.91
2017-03-30T03:46:11.275Z,71.11
2017-03-30T03:46:37.379Z,71.11
2017-03-30T03:47:03.461Z,71.11
2017-03-30T03:47:29.542Z,71.58
2017-03-30T03:47:55.645Z,71.01
2017-03-30T03:48:21.751Z,71.3
2017-03-30T03:48:47.856Z,71.48
2017-03-30T03:49:13.940Z,71.45
2017-03-30T03:49:40.023Z,71.26
2017-03-30T03:50:06.104Z,71.36
2017-03-30T03:50:32.187Z,71.11
2017-03-30T03:50:58.267Z,71.68
2017-03-30T03:51:24.352Z,71.48
2017-03-30T03:51:50.454Z,71.39
2017-03-30T03:52:16.538Z,71.11
2017-03-30T03:52:42.619Z,71.55
2017-03-30T03:53:08.699Z,71.39
2017-03-30T03:53:34.782Z,71.68
2017-03-30T03:54:00.863Z,71.68
2017-03-30T03:54:26.944Z,71.68
2017-03-30T03:54:53.026Z,71.16
2017-03-30T03:55:19.132Z,71.26
2017-03-30T03:55:45.236Z,71.45
2017-03-30T03:56:11.316Z,71.64
2017-03-30T03:56:37.398Z,71.77
2017-03-30T03:57:03.503Z,71.73
2017-03-30T03:57:29.609Z,72.02
2017-03-30T03:57:55.689Z,71.64
2017-03-30T03:58:21.775Z,71.83
2017-03-30T03:58:47.880Z,71.87
2017-03-30T03:59:13.962Z,71.83
2017-03-30T03:59:40.044Z,71.97
2017-03-30T04:00:06.124Z,72.25
2017-03-30T04:00:32.228Z,72.31
2017-03-30T04:00:58.309Z,72.16
2017-03-30T04:01:24.392Z,71.97
2017-03-30T04:01:50.474Z,71.77
2017-03-30T04:02:16.603Z,71.39
2017-03-30T04:02:42.683Z,71.77
2017-03-30T04:03:08.766Z,71.77
2017-03-30T04:03:34.848Z,72.34
2017-03-30T04:04:00.931Z,72.12
2017-03-30T04:04:27.013Z,72.16
2017-03-30T04:04:53.091Z,72.16
2017-03-30T04:05:19.173Z,72.02
2017-03-30T04:05:45.256Z,72.22
2017-03-30T04:06:11.365Z,72.12
2017-03-30T04:06:37.443Z,72.31
2017-03-30T04:07:03.524Z,72.44
2017-03-30T04:07:29.613Z,72.22
2017-03-30T04:07:55.710Z,71.93
2017-03-30T04:08:21.836Z,72.12
2017-03-30T04:08:47.919Z,72.16
2017-03-30T04:09:14.003Z,72.44
2017-03-30T04:09:40.085Z,72.22
2017-03-30T04:10:06.166Z,72.22
2017-03-30T04:10:32.269Z,72.5
2017-03-30T04:10:58.376Z,72.6
2017-03-30T04:11:24.457Z,72.69
2017-03-30T04:11:50.536Z,72.5
2017-03-30T04:12:16.619Z,72.83
2017-03-30T04:12:42.702Z,72.79
2017-03-30T04:13:08.781Z,72.5
2017-03-30T04:13:34.865Z,72.31
2017-03-30T04:14:00.949Z,72.31
2017-03-30T04:14:27.030Z,71.64
2017-03-30T04:14:53.110Z,71.83
2017-03-30T04:15:19.193Z,72.31
2017-03-30T04:15:45.297Z,72.83
2017-03-30T04:16:11.399Z,72.6
2017-03-30T04:16:37.482Z,72.06
2017-03-30T04:17:03.565Z,71.87
2017-03-30T04:17:29.647Z,72.6
2017-03-30T04:17:55.726Z,72.12
2017-03-30T04:18:21.810Z,71.83
2017-03-30T04:18:47.914Z,72.69
2017-03-30T04:19:14.018Z,72.5
2017-03-30T04:19:40.122Z,72.79
2017-03-30T04:20:06.229Z,72.63
2017-03-30T04:20:32.312Z,72.16
2017-03-30T04:20:58.391Z,72.6
2017-03-30T04:21:24.474Z,72.12
2017-03-30T04:21:50.555Z,72.69
2017-03-30T04:22:16.639Z,72.41
2017-03-30T04:22:42.743Z,72.41
2017-03-30T04:23:08.826Z,72.31
2017-03-30T04:23:34.932Z,72.41
2017-03-30T04:24:01.012Z,71.64
2017-03-30T04:24:27.092Z,72.31
2017-03-30T04:24:53.175Z,71.73
2017-03-30T04:25:19.561Z,71.83
2017-03-30T04:25:45.641Z,72.31
2017-03-30T04:26:11.723Z,71.83
2017-03-30T04:26:37.803Z,72.12
2017-03-30T04:27:03.884Z,72.31
2017-03-30T04:27:29.988Z,71.73
2017-03-30T04:27:56.068Z,72.31
2017-03-30T04:28:22.149Z,72.6
2017-03-30T04:28:48.229Z,71.64
2017-03-30T04:29:14.311Z,72.22
2017-03-30T04:29:40.414Z,72.41
2017-03-30T04:30:06.495Z,72.02
2017-03-30T04:30:32.643Z,72.31
2017-03-30T04:30:58.726Z,72.06
2017-03-30T04:31:24.808Z,72.44
2017-03-30T04:31:50.890Z,72.41
2017-03-30T04:32:16.995Z,72.22
2017-03-30T04:32:43.078Z,72.34
2017-03-30T04:33:09.181Z,72.31
2017-03-30T04:33:35.262Z,72.02
2017-03-30T04:34:01.366Z,72.69
2017-03-30T04:34:27.449Z,72.5
2017-03-30T04:34:53.530Z,72.31
2017-03-30T04:35:19.613Z,71.93
2017-03-30T04:35:45.692Z,72.6
2017-03-30T04:36:11.774Z,72.41
2017-03-30T04:36:37.881Z,72.41
2017-03-30T04:37:03.962Z,72.31
2017-03-30T04:37:30.043Z,72.12
2017-03-30T04:37:56.125Z,72.69
2017-03-30T04:38:22.210Z,72.5
2017-03-30T04:38:48.292Z,72.88
2017-03-30T04:39:14.373Z,72.69
2017-03-30T04:39:40.454Z,72.31
2017-03-30T04:40:06.556Z,72.31
2017-03-30T04:40:32.638Z,72.31
2017-03-30T04:40:58.744Z,72.12
2017-03-30T04:41:24.826Z,72.12
2017-03-30T04:41:50.911Z,72.69
2017-03-30T04:42:16.990Z,72.41
2017-03-30T04:42:43.071Z,72.41
2017-03-30T04:43:09.151Z,72.5
2017-03-30T04:43:35.235Z,72.69
2017-03-30T04:44:01.319Z,72.31
2017-03-30T04:44:27.424Z,71.93
2017-03-30T04:44:53.504Z,72.5
2017-03-30T04:45:19.614Z,72.22
2017-03-30T04:45:45.693Z,72.22
2017-03-30T04:46:11.774Z,72.5
2017-03-30T04:46:37.879Z,72.6
2017-03-30T04:47:03.963Z,72.69
2017-03-30T04:47:30.046Z,72.22
2017-03-30T04:47:56.154Z,72.69
2017-03-30T04:48:22.234Z,71.83
2017-03-30T04:48:48.317Z,72.31
2017-03-30T04:49:14.400Z,71.83
2017-03-30T04:49:40.481Z,72.22
2017-03-30T04:50:06.586Z,72.34
2017-03-30T04:50:32.691Z,72.41
2017-03-30T04:50:58.773Z,72.5
2017-03-30T04:51:24.858Z,72.41
2017-03-30T04:51:50.939Z,72.5
2017-03-30T04:52:17.022Z,72.5
2017-03-30T04:52:43.105Z,72.6
2017-03-30T04:53:09.212Z,72.31
2017-03-30T04:53:35.291Z,72.25
2017-03-30T04:54:01.373Z,72.16
2017-03-30T04:54:27.455Z,71.58
2017-03-30T04:54:53.536Z,71.97
2017-03-30T04:55:19.918Z,72.22
2017-03-30T04:55:46.000Z,72.31
2017-03-30T04:56:12.085Z,72.5
2017-03-30T04:56:38.189Z,72.5
2017-03-30T04:57:04.269Z,72.5
2017-03-30T04:57:30.352Z,72.41
2017-03-30T04:57:56.435Z,72.41
2017-03-30T04:58:22.541Z,72.5
2017-03-30T04:58:48.620Z,71.97
2017-03-30T04:59:14.702Z,72.6
2017-03-30T04:59:40.783Z,72.44
2017-03-30T05:00:06.865Z,72.25
2017-03-30T05:00:32.951Z,71.97
2017-03-30T05:00:59.031Z,72.12
2017-03-30T05:01:25.111Z,71.87
2017-03-30T05:01:51.194Z,72.16
2017-03-30T05:02:17.299Z,72.25
2017-03-30T05:02:43.404Z,72.06
2017-03-30T05:03:09.486Z,72.41
2017-03-30T05:03:35.590Z,72.16
2017-03-30T05:04:01.673Z,72.41
2017-03-30T05:04:27.753Z,72.22
2017-03-30T05:04:53.837Z,72.12
2017-03-30T05:05:19.921Z,72.69
2017-03-30T05:05:46.001Z,71.83
2017-03-30T05:06:12.106Z,72.41
2017-03-30T05:06:38.210Z,72.22
2017-03-30T05:07:04.292Z,71.77
2017-03-30T05:07:30.399Z,72.73
2017-03-30T05:07:56.479Z,72.02
2017-03-30T05:08:22.560Z,72.31
2017-03-30T05:08:48.641Z,72.25
2017-03-30T05:09:14.749Z,72.41
2017-03-30T05:09:40.831Z,72.12
2017-03-30T05:10:06.938Z,72.44
2017-03-30T05:10:33.067Z,72.25
2017-03-30T05:10:59.149Z,72.44
2017-03-30T05:11:25.231Z,72.31
2017-03-30T05:11:51.314Z,72.31
2017-03-30T05:12:17.418Z,72.02
2017-03-30T05:12:43.521Z,72.41
2017-03-30T05:13:09.605Z,72.02
2017-03-30T05:13:35.685Z,72.25
2017-03-30T05:14:01.773Z,72.12
2017-03-30T05:14:27.850Z,72.12
2017-03-30T05:14:53.953Z,71.97
2017-03-30T05:15:20.059Z,72.25
2017-03-30T05:15:46.143Z,72.12
2017-03-30T05:16:12.247Z,72.69
2017-03-30T05:16:38.338Z,72.31
2017-03-30T05:17:04.411Z,72.31
2017-03-30T05:17:30.514Z,72.31
2017-03-30T05:17:56.598Z,72.31
2017-03-30T05:18:22.680Z,72.41
2017-03-30T05:18:48.784Z,71.64
2017-03-30T05:19:14.867Z,71.83
2017-03-30T05:19:40.952Z,71.64
2017-03-30T05:20:07.051Z,71.83
2017-03-30T05:20:33.136Z,71.73
2017-03-30T05:20:59.241Z,71.64
2017-03-30T05:21:25.319Z,71.83
2017-03-30T05:21:51.408Z,71.93
2017-03-30T05:22:17.514Z,71.83
2017-03-30T05:22:43.767Z,71.93
2017-03-30T05:23:09.846Z,72.41
2017-03-30T05:23:35.974Z,72.22
2017-03-30T05:24:02.056Z,72.41
2017-03-30T05:24:28.136Z,72.41
2017-03-30T05:24:54.218Z,72.41
2017-03-30T05:25:20.301Z,72.31
2017-03-30T05:25:46.435Z,71.83
2017-03-30T05:26:12.515Z,72.12
2017-03-30T05:26:38.597Z,72.31
2017-03-30T05:27:04.676Z,72.5
2017-03-30T05:27:30.781Z,72.31
2017-03-30T05:27:56.883Z,72.5
2017-03-30T05:28:22.968Z,72.69
2017-03-30T05:28:49.048Z,71.83
2017-03-30T05:29:15.133Z,72.5
2017-03-30T05:29:41.236Z,72.12
2017-03-30T05:30:07.317Z,71.73
2017-03-30T05:30:33.400Z,72.69
2017-03-30T05:30:59.483Z,72.41
2017-03-30T05:31:25.564Z,71.93
2017-03-30T05:31:51.646Z,72.41
2017-03-30T05:32:17.727Z,72.41
2017-03-30T05:32:43.809Z,71.83
2017-03-30T05:33:09.914Z,72.6
2017-03-30T05:33:35.997Z,72.5
2017-03-30T05:34:02.077Z,72.69
2017-03-30T05:34:28.179Z,72.69
2017-03-30T05:34:54.262Z,72.12
2017-03-30T05:35:20.367Z,72.31
2017-03-30T05:35:46.450Z,72.31
2017-03-30T05:36:12.531Z,72.12
2017-03-30T05:36:38.615Z,72.12
2017-03-30T05:37:04.696Z,72.12